sensor_id;sensor_type;location;lat;lon;timestamp;P1;durP1;ratioP1;P2;durP2;ratioP2
9465;SDS011;4771;48.726;9.006;2024-03-29T00:02:25;2.03;;;1.23;;
9465;SDS011;4771;48.726;9.006;2024-03-29T00:04:51;5.27;;;1.37;;
9465;SDS011;4771;48.726;9.006;2024-03-29T00:07:17;1.40;;;1.13;;
9465;SDS011;4771;48.726;9.006;2024-03-29T00:09:43;2.10;;;1.23;;
9465;SDS011;4771;48.726;9.006;2024-03-29T00:12:09;3.03;;;1.13;;
9465;SDS011;4771;48.726;9.006;2024-03-29T00:14:35;2.57;;;1.07;;
9465;SDS011;4771;48.726;9.006;2024-03-29T00:17:01;1.87;;;1.07;;
9465;SDS011;4771;48.726;9.006;2024-03-29T00:19:28;1.47;;;1.00;;
9465;SDS011;4771;48.726;9.006;2024-03-29T00:21:54;1.40;;;1.00;;
9465;SDS011;4771;48.726;9.006;2024-03-29T00:24:20;1.67;;;1.07;;
9465;SDS011;4771;48.726;9.006;2024-03-29T00:26:46;2.10;;;1.30;;
9465;SDS011;4771;48.726;9.006;2024-03-29T00:29:12;1.87;;;1.20;;
9465;SDS011;4771;48.726;9.006;2024-03-29T00:31:38;1.03;;;0.90;;
9465;SDS011;4771;48.726;9.006;2024-03-29T00:34:04;2.07;;;1.00;;
9465;SDS011;4771;48.726;9.006;2024-03-29T00:36:31;1.53;;;1.10;;
9465;SDS011;4771;48.726;9.006;2024-03-29T00:38:57;1.87;;;1.07;;
9465;SDS011;4771;48.726;9.006;2024-03-29T00:41:23;2.10;;;0.73;;
9465;SDS011;4771;48.726;9.006;2024-03-29T00:43:49;0.83;;;0.83;;
9465;SDS011;4771;48.726;9.006;2024-03-29T00:46:15;1.10;;;1.00;;
9465;SDS011;4771;48.726;9.006;2024-03-29T00:48:40;1.33;;;1.03;;
9465;SDS011;4771;48.726;9.006;2024-03-29T00:51:06;0.93;;;0.90;;
9465;SDS011;4771;48.726;9.006;2024-03-29T00:53:34;1.63;;;0.90;;
9465;SDS011;4771;48.726;9.006;2024-03-29T00:56:00;2.23;;;1.17;;
9465;SDS011;4771;48.726;9.006;2024-03-29T00:58:25;1.30;;;1.10;;
9465;SDS011;4771;48.726;9.006;2024-03-29T01:00:51;2.17;;;1.17;;
9465;SDS011;4771;48.726;9.006;2024-03-29T01:03:17;1.27;;;1.00;;
9465;SDS011;4771;48.726;9.006;2024-03-29T01:05:43;1.07;;;0.97;;
9465;SDS011;4771;48.726;9.006;2024-03-29T01:08:09;1.50;;;1.00;;
9465;SDS011;4771;48.726;9.006;2024-03-29T01:10:36;0.97;;;0.90;;
9465;SDS011;4771;48.726;9.006;2024-03-29T01:13:02;1.70;;;1.10;;
9465;SDS011;4771;48.726;9.006;2024-03-29T01:15:28;1.07;;;0.97;;
9465;SDS011;4771;48.726;9.006;2024-03-29T01:17:54;1.50;;;1.13;;
9465;SDS011;4771;48.726;9.006;2024-03-29T01:20:20;1.30;;;1.03;;
9465;SDS011;4771;48.726;9.006;2024-03-29T01:22:46;1.80;;;1.20;;
9465;SDS011;4771;48.726;9.006;2024-03-29T01:25:12;2.63;;;1.37;;
9465;SDS011;4771;48.726;9.006;2024-03-29T01:27:39;2.10;;;0.87;;
9465;SDS011;4771;48.726;9.006;2024-03-29T01:30:06;2.40;;;1.10;;
9465;SDS011;4771;48.726;9.006;2024-03-29T01:32:32;2.70;;;1.00;;
9465;SDS011;4771;48.726;9.006;2024-03-29T01:34:58;1.90;;;0.97;;
9465;SDS011;4771;48.726;9.006;2024-03-29T01:37:24;1.10;;;1.00;;
9465;SDS011;4771;48.726;9.006;2024-03-29T01:39:50;1.77;;;1.00;;
9465;SDS011;4771;48.726;9.006;2024-03-29T01:42:16;0.73;;;0.73;;
9465;SDS011;4771;48.726;9.006;2024-03-29T01:44:44;1.77;;;1.20;;
9465;SDS011;4771;48.726;9.006;2024-03-29T01:47:11;1.10;;;1.00;;
9465;SDS011;4771;48.726;9.006;2024-03-29T01:49:38;0.87;;;0.80;;
9465;SDS011;4771;48.726;9.006;2024-03-29T01:52:06;0.77;;;0.77;;
9465;SDS011;4771;48.726;9.006;2024-03-29T01:54:33;1.27;;;1.10;;
9465;SDS011;4771;48.726;9.006;2024-03-29T01:57:00;1.13;;;0.83;;
9465;SDS011;4771;48.726;9.006;2024-03-29T01:59:27;1.50;;;1.10;;
9465;SDS011;4771;48.726;9.006;2024-03-29T02:01:56;1.23;;;0.97;;
9465;SDS011;4771;48.726;9.006;2024-03-29T02:04:24;2.13;;;0.93;;
9465;SDS011;4771;48.726;9.006;2024-03-29T02:06:50;2.63;;;1.00;;
9465;SDS011;4771;48.726;9.006;2024-03-29T02:09:18;0.83;;;0.80;;
9465;SDS011;4771;48.726;9.006;2024-03-29T02:11:44;0.90;;;0.90;;
9465;SDS011;4771;48.726;9.006;2024-03-29T02:14:12;1.27;;;0.90;;
9465;SDS011;4771;48.726;9.006;2024-03-29T02:16:39;1.23;;;0.97;;
9465;SDS011;4771;48.726;9.006;2024-03-29T02:19:08;0.90;;;0.90;;
9465;SDS011;4771;48.726;9.006;2024-03-29T02:21:36;1.40;;;1.00;;
9465;SDS011;4771;48.726;9.006;2024-03-29T02:24:08;0.80;;;0.80;;
9465;SDS011;4771;48.726;9.006;2024-03-29T02:26:36;1.00;;;0.90;;
9465;SDS011;4771;48.726;9.006;2024-03-29T02:29:06;1.00;;;0.80;;
9465;SDS011;4771;48.726;9.006;2024-03-29T02:31:34;0.97;;;0.90;;
9465;SDS011;4771;48.726;9.006;2024-03-29T02:34:01;1.10;;;0.80;;
9465;SDS011;4771;48.726;9.006;2024-03-29T02:36:28;1.37;;;0.93;;
9465;SDS011;4771;48.726;9.006;2024-03-29T02:38:55;3.33;;;0.90;;
9465;SDS011;4771;48.726;9.006;2024-03-29T02:41:23;2.77;;;0.90;;
9465;SDS011;4771;48.726;9.006;2024-03-29T02:43:51;1.00;;;0.90;;
9465;SDS011;4771;48.726;9.006;2024-03-29T02:46:19;2.00;;;0.80;;
9465;SDS011;4771;48.726;9.006;2024-03-29T02:48:46;1.53;;;1.00;;
9465;SDS011;4771;48.726;9.006;2024-03-29T02:51:12;0.80;;;0.80;;
9465;SDS011;4771;48.726;9.006;2024-03-29T02:53:39;1.00;;;0.90;;
9465;SDS011;4771;48.726;9.006;2024-03-29T02:56:05;0.97;;;0.90;;
9465;SDS011;4771;48.726;9.006;2024-03-29T02:58:34;1.63;;;1.00;;
9465;SDS011;4771;48.726;9.006;2024-03-29T03:01:04;1.43;;;0.90;;
9465;SDS011;4771;48.726;9.006;2024-03-29T03:03:32;1.20;;;1.10;;
9465;SDS011;4771;48.726;9.006;2024-03-29T03:05:57;1.00;;;0.90;;
9465;SDS011;4771;48.726;9.006;2024-03-29T03:08:24;0.93;;;0.80;;
9465;SDS011;4771;48.726;9.006;2024-03-29T03:11:08;1.77;;;0.80;;
9465;SDS011;4771;48.726;9.006;2024-03-29T03:13:37;1.17;;;1.00;;
9465;SDS011;4771;48.726;9.006;2024-03-29T03:16:03;3.50;;;1.20;;
9465;SDS011;4771;48.726;9.006;2024-03-29T03:18:30;1.33;;;1.10;;
9465;SDS011;4771;48.726;9.006;2024-03-29T03:20:57;1.93;;;1.00;;
9465;SDS011;4771;48.726;9.006;2024-03-29T03:23:24;1.63;;;1.20;;
9465;SDS011;4771;48.726;9.006;2024-03-29T03:25:55;1.47;;;1.00;;
9465;SDS011;4771;48.726;9.006;2024-03-29T03:28:22;1.08;;;0.98;;
9465;SDS011;4771;48.726;9.006;2024-03-29T03:30:51;1.50;;;1.00;;
9465;SDS011;4771;48.726;9.006;2024-03-29T03:33:17;2.43;;;0.90;;
9465;SDS011;4771;48.726;9.006;2024-03-29T03:35:44;1.00;;;0.90;;
9465;SDS011;4771;48.726;9.006;2024-03-29T03:38:11;2.10;;;1.03;;
9465;SDS011;4771;48.726;9.006;2024-03-29T03:40:37;1.43;;;1.10;;
9465;SDS011;4771;48.726;9.006;2024-03-29T03:43:04;1.30;;;1.20;;
9465;SDS011;4771;48.726;9.006;2024-03-29T03:45:33;1.73;;;1.10;;
9465;SDS011;4771;48.726;9.006;2024-03-29T03:48:01;3.17;;;1.23;;
9465;SDS011;4771;48.726;9.006;2024-03-29T03:50:28;2.03;;;1.10;;
9465;SDS011;4771;48.726;9.006;2024-03-29T03:52:54;1.23;;;1.00;;
9465;SDS011;4771;48.726;9.006;2024-03-29T03:55:21;1.20;;;1.10;;
9465;SDS011;4771;48.726;9.006;2024-03-29T03:57:47;1.50;;;1.00;;
9465;SDS011;4771;48.726;9.006;2024-03-29T04:00:14;1.27;;;1.10;;
9465;SDS011;4771;48.726;9.006;2024-03-29T04:02:40;1.00;;;0.80;;
9465;SDS011;4771;48.726;9.006;2024-03-29T04:05:08;1.07;;;0.80;;
9465;SDS011;4771;48.726;9.006;2024-03-29T04:07:34;1.53;;;1.07;;
9465;SDS011;4771;48.726;9.006;2024-03-29T04:10:01;0.90;;;0.90;;
9465;SDS011;4771;48.726;9.006;2024-03-29T04:12:27;0.97;;;0.80;;
9465;SDS011;4771;48.726;9.006;2024-03-29T04:14:54;1.00;;;0.90;;
9465;SDS011;4771;48.726;9.006;2024-03-29T04:17:22;1.20;;;1.10;;
9465;SDS011;4771;48.726;9.006;2024-03-29T04:19:49;0.90;;;0.90;;
9465;SDS011;4771;48.726;9.006;2024-03-29T04:22:16;1.87;;;0.83;;
9465;SDS011;4771;48.726;9.006;2024-03-29T04:24:43;0.70;;;0.70;;
9465;SDS011;4771;48.726;9.006;2024-03-29T04:27:09;1.10;;;1.00;;
9465;SDS011;4771;48.726;9.006;2024-03-29T04:29:36;1.67;;;1.10;;
9465;SDS011;4771;48.726;9.006;2024-03-29T04:32:02;1.70;;;1.30;;
9465;SDS011;4771;48.726;9.006;2024-03-29T04:34:30;1.20;;;0.90;;
9465;SDS011;4771;48.726;9.006;2024-03-29T04:36:55;1.20;;;0.93;;
9465;SDS011;4771;48.726;9.006;2024-03-29T04:39:24;2.47;;;1.20;;
9465;SDS011;4771;48.726;9.006;2024-03-29T04:41:50;1.00;;;0.90;;
9465;SDS011;4771;48.726;9.006;2024-03-29T04:44:23;1.17;;;1.00;;
9465;SDS011;4771;48.726;9.006;2024-03-29T04:46:50;4.70;;;1.13;;
9465;SDS011;4771;48.726;9.006;2024-03-29T04:49:18;2.00;;;1.07;;
9465;SDS011;4771;48.726;9.006;2024-03-29T04:51:49;0.80;;;0.80;;
9465;SDS011;4771;48.726;9.006;2024-03-29T04:54:16;2.50;;;1.20;;
9465;SDS011;4771;48.726;9.006;2024-03-29T04:56:45;1.20;;;1.07;;
9465;SDS011;4771;48.726;9.006;2024-03-29T04:59:11;2.80;;;1.20;;
9465;SDS011;4771;48.726;9.006;2024-03-29T05:01:42;1.97;;;1.10;;
9465;SDS011;4771;48.726;9.006;2024-03-29T05:04:09;1.77;;;1.17;;
9465;SDS011;4771;48.726;9.006;2024-03-29T05:06:36;1.60;;;1.23;;
9465;SDS011;4771;48.726;9.006;2024-03-29T05:09:03;1.33;;;0.97;;
9465;SDS011;4771;48.726;9.006;2024-03-29T05:11:29;1.57;;;1.30;;
9465;SDS011;4771;48.726;9.006;2024-03-29T05:14:00;1.37;;;1.07;;
9465;SDS011;4771;48.726;9.006;2024-03-29T05:16:29;1.57;;;1.17;;
9465;SDS011;4771;48.726;9.006;2024-03-29T05:18:57;2.63;;;1.20;;
9465;SDS011;4771;48.726;9.006;2024-03-29T05:21:24;1.57;;;1.20;;
9465;SDS011;4771;48.726;9.006;2024-03-29T05:23:51;2.13;;;1.10;;
9465;SDS011;4771;48.726;9.006;2024-03-29T05:26:18;2.33;;;1.20;;
9465;SDS011;4771;48.726;9.006;2024-03-29T05:28:44;1.43;;;1.27;;
9465;SDS011;4771;48.726;9.006;2024-03-29T05:31:14;1.40;;;1.20;;
9465;SDS011;4771;48.726;9.006;2024-03-29T05:33:41;1.10;;;1.00;;
9465;SDS011;4771;48.726;9.006;2024-03-29T05:36:08;1.80;;;1.07;;
9465;SDS011;4771;48.726;9.006;2024-03-29T05:38:36;1.67;;;1.10;;
9465;SDS011;4771;48.726;9.006;2024-03-29T05:41:03;1.50;;;1.17;;
9465;SDS011;4771;48.726;9.006;2024-03-29T05:43:30;4.70;;;1.20;;
9465;SDS011;4771;48.726;9.006;2024-03-29T05:45:57;1.67;;;1.20;;
9465;SDS011;4771;48.726;9.006;2024-03-29T05:48:27;1.50;;;1.23;;
9465;SDS011;4771;48.726;9.006;2024-03-29T05:50:54;1.60;;;1.10;;
9465;SDS011;4771;48.726;9.006;2024-03-29T05:53:20;1.30;;;1.20;;
9465;SDS011;4771;48.726;9.006;2024-03-29T05:55:47;3.17;;;1.50;;
9465;SDS011;4771;48.726;9.006;2024-03-29T05:58:14;1.70;;;1.30;;
9465;SDS011;4771;48.726;9.006;2024-03-29T06:00:42;1.30;;;1.07;;
9465;SDS011;4771;48.726;9.006;2024-03-29T06:03:09;2.07;;;1.20;;
9465;SDS011;4771;48.726;9.006;2024-03-29T06:05:38;1.77;;;1.40;;
9465;SDS011;4771;48.726;9.006;2024-03-29T06:08:06;1.27;;;1.13;;
9465;SDS011;4771;48.726;9.006;2024-03-29T06:10:33;2.03;;;1.40;;
9465;SDS011;4771;48.726;9.006;2024-03-29T06:13:00;2.20;;;1.30;;
9465;SDS011;4771;48.726;9.006;2024-03-29T06:15:32;1.27;;;1.10;;
9465;SDS011;4771;48.726;9.006;2024-03-29T06:18:16;1.38;;;1.15;;
9465;SDS011;4771;48.726;9.006;2024-03-29T06:20:46;3.08;;;1.20;;
9465;SDS011;4771;48.726;9.006;2024-03-29T06:23:13;1.93;;;1.00;;
9465;SDS011;4771;48.726;9.006;2024-03-29T06:25:40;1.87;;;1.13;;
9465;SDS011;4771;48.726;9.006;2024-03-29T06:28:07;2.50;;;1.10;;
9465;SDS011;4771;48.726;9.006;2024-03-29T06:30:34;1.88;;;1.15;;
9465;SDS011;4771;48.726;9.006;2024-03-29T06:33:00;2.15;;;1.27;;
9465;SDS011;4771;48.726;9.006;2024-03-29T06:35:28;0.70;;;0.70;;
9465;SDS011;4771;48.726;9.006;2024-03-29T06:37:57;2.17;;;1.20;;
9465;SDS011;4771;48.726;9.006;2024-03-29T06:40:24;1.75;;;1.10;;
9465;SDS011;4771;48.726;9.006;2024-03-29T06:42:51;1.98;;;1.30;;
9465;SDS011;4771;48.726;9.006;2024-03-29T06:45:18;0.90;;;0.90;;
9465;SDS011;4771;48.726;9.006;2024-03-29T06:47:45;1.75;;;1.15;;
9465;SDS011;4771;48.726;9.006;2024-03-29T06:50:12;1.00;;;0.90;;
9465;SDS011;4771;48.726;9.006;2024-03-29T06:52:39;1.60;;;0.90;;
9465;SDS011;4771;48.726;9.006;2024-03-29T06:55:07;1.75;;;1.05;;
9465;SDS011;4771;48.726;9.006;2024-03-29T06:57:35;1.27;;;0.90;;
9465;SDS011;4771;48.726;9.006;2024-03-29T07:00:02;2.97;;;1.30;;
9465;SDS011;4771;48.726;9.006;2024-03-29T07:02:29;1.10;;;0.82;;
9465;SDS011;4771;48.726;9.006;2024-03-29T07:04:56;1.35;;;1.10;;
9465;SDS011;4771;48.726;9.006;2024-03-29T07:07:23;1.60;;;1.02;;
9465;SDS011;4771;48.726;9.006;2024-03-29T07:09:49;1.40;;;0.93;;
9465;SDS011;4771;48.726;9.006;2024-03-29T07:12:18;1.67;;;1.00;;
9465;SDS011;4771;48.726;9.006;2024-03-29T07:14:44;1.00;;;0.90;;
9465;SDS011;4771;48.726;9.006;2024-03-29T07:17:11;1.40;;;1.00;;
9465;SDS011;4771;48.726;9.006;2024-03-29T07:19:38;2.03;;;1.00;;
9465;SDS011;4771;48.726;9.006;2024-03-29T07:22:05;1.52;;;0.98;;
9465;SDS011;4771;48.726;9.006;2024-03-29T07:24:32;1.00;;;0.90;;
9465;SDS011;4771;48.726;9.006;2024-03-29T07:26:59;2.65;;;1.45;;
9465;SDS011;4771;48.726;9.006;2024-03-29T07:29:27;1.73;;;1.05;;
9465;SDS011;4771;48.726;9.006;2024-03-29T07:31:54;2.45;;;1.48;;
9465;SDS011;4771;48.726;9.006;2024-03-29T07:34:21;2.80;;;1.40;;
9465;SDS011;4771;48.726;9.006;2024-03-29T07:36:47;4.97;;;3.28;;
9465;SDS011;4771;48.726;9.006;2024-03-29T07:39:14;3.10;;;1.58;;
9465;SDS011;4771;48.726;9.006;2024-03-29T07:41:41;1.80;;;1.20;;
9465;SDS011;4771;48.726;9.006;2024-03-29T07:44:08;2.00;;;1.20;;
9465;SDS011;4771;48.726;9.006;2024-03-29T07:46:36;1.60;;;1.30;;
9465;SDS011;4771;48.726;9.006;2024-03-29T07:49:05;3.13;;;1.60;;
9465;SDS011;4771;48.726;9.006;2024-03-29T07:51:32;4.88;;;2.75;;
9465;SDS011;4771;48.726;9.006;2024-03-29T07:53:59;6.05;;;3.63;;
9465;SDS011;4771;48.726;9.006;2024-03-29T07:56:26;2.40;;;1.80;;
9465;SDS011;4771;48.726;9.006;2024-03-29T07:58:53;5.47;;;3.70;;
9465;SDS011;4771;48.726;9.006;2024-03-29T08:01:21;9.40;;;5.80;;
9465;SDS011;4771;48.726;9.006;2024-03-29T08:03:51;16.67;;;8.77;;
9465;SDS011;4771;48.726;9.006;2024-03-29T08:06:19;12.03;;;8.10;;
9465;SDS011;4771;48.726;9.006;2024-03-29T08:08:48;17.30;;;10.00;;
9465;SDS011;4771;48.726;9.006;2024-03-29T08:11:15;6.85;;;3.40;;
9465;SDS011;4771;48.726;9.006;2024-03-29T08:13:42;5.03;;;2.93;;
9465;SDS011;4771;48.726;9.006;2024-03-29T08:16:09;4.47;;;1.40;;
9465;SDS011;4771;48.726;9.006;2024-03-29T08:18:37;3.83;;;1.60;;
9465;SDS011;4771;48.726;9.006;2024-03-29T08:21:05;3.93;;;1.60;;
9465;SDS011;4771;48.726;9.006;2024-03-29T08:23:36;1.95;;;1.38;;
9465;SDS011;4771;48.726;9.006;2024-03-29T08:26:04;3.65;;;1.60;;
9465;SDS011;4771;48.726;9.006;2024-03-29T08:28:31;3.50;;;1.50;;
9465;SDS011;4771;48.726;9.006;2024-03-29T08:30:58;4.00;;;1.80;;
9465;SDS011;4771;48.726;9.006;2024-03-29T08:33:25;1.88;;;1.38;;
9465;SDS011;4771;48.726;9.006;2024-03-29T08:35:52;2.33;;;1.58;;
9465;SDS011;4771;48.726;9.006;2024-03-29T08:38:21;2.03;;;1.43;;
9465;SDS011;4771;48.726;9.006;2024-03-29T08:40:48;2.27;;;1.30;;
9465;SDS011;4771;48.726;9.006;2024-03-29T08:43:15;2.13;;;1.25;;
9465;SDS011;4771;48.726;9.006;2024-03-29T08:45:43;4.50;;;2.72;;
9465;SDS011;4771;48.726;9.006;2024-03-29T08:48:09;3.38;;;2.40;;
9465;SDS011;4771;48.726;9.006;2024-03-29T08:50:37;2.13;;;1.20;;
9465;SDS011;4771;48.726;9.006;2024-03-29T08:53:04;1.88;;;1.33;;
9465;SDS011;4771;48.726;9.006;2024-03-29T08:55:33;2.67;;;1.40;;
9465;SDS011;4771;48.726;9.006;2024-03-29T08:58:01;2.85;;;2.13;;
9465;SDS011;4771;48.726;9.006;2024-03-29T09:00:29;2.67;;;1.73;;
9465;SDS011;4771;48.726;9.006;2024-03-29T09:02:56;2.67;;;1.50;;
9465;SDS011;4771;48.726;9.006;2024-03-29T09:05:23;2.17;;;1.67;;
9465;SDS011;4771;48.726;9.006;2024-03-29T09:07:50;1.73;;;1.40;;
9465;SDS011;4771;48.726;9.006;2024-03-29T09:10:17;3.95;;;1.70;;
9465;SDS011;4771;48.726;9.006;2024-03-29T09:12:45;3.00;;;1.42;;
9465;SDS011;4771;48.726;9.006;2024-03-29T09:15:13;2.70;;;1.45;;
9465;SDS011;4771;48.726;9.006;2024-03-29T09:17:41;1.58;;;1.30;;
9465;SDS011;4771;48.726;9.006;2024-03-29T09:20:08;2.47;;;1.20;;
9465;SDS011;4771;48.726;9.006;2024-03-29T09:22:36;1.67;;;1.40;;
9465;SDS011;4771;48.726;9.006;2024-03-29T09:28:23;2.38;;;1.50;;
9465;SDS011;4771;48.726;9.006;2024-03-29T09:30:50;2.13;;;1.30;;
9465;SDS011;4771;48.726;9.006;2024-03-29T09:33:23;2.53;;;1.30;;
9465;SDS011;4771;48.726;9.006;2024-03-29T09:35:50;3.83;;;1.35;;
9465;SDS011;4771;48.726;9.006;2024-03-29T09:38:16;2.33;;;1.48;;
9465;SDS011;4771;48.726;9.006;2024-03-29T09:40:43;5.53;;;2.05;;
9465;SDS011;4771;48.726;9.006;2024-03-29T09:43:10;2.10;;;1.50;;
9465;SDS011;4771;48.726;9.006;2024-03-29T09:45:42;3.85;;;1.63;;
9465;SDS011;4771;48.726;9.006;2024-03-29T09:48:10;2.60;;;1.55;;
9465;SDS011;4771;48.726;9.006;2024-03-29T09:50:38;3.25;;;1.65;;
9465;SDS011;4771;48.726;9.006;2024-03-29T09:53:05;2.15;;;1.38;;
9465;SDS011;4771;48.726;9.006;2024-03-29T09:55:33;1.88;;;1.40;;
9465;SDS011;4771;48.726;9.006;2024-03-29T09:58:01;2.00;;;1.67;;
9465;SDS011;4771;48.726;9.006;2024-03-29T10:00:29;2.53;;;1.60;;
9465;SDS011;4771;48.726;9.006;2024-03-29T10:02:57;2.45;;;1.40;;
9465;SDS011;4771;48.726;9.006;2024-03-29T10:05:24;2.03;;;1.50;;
9465;SDS011;4771;48.726;9.006;2024-03-29T10:07:52;1.80;;;1.35;;
9465;SDS011;4771;48.726;9.006;2024-03-29T10:10:21;1.85;;;1.40;;
9465;SDS011;4771;48.726;9.006;2024-03-29T10:12:48;5.57;;;1.45;;
9465;SDS011;4771;48.726;9.006;2024-03-29T10:15:15;2.15;;;1.50;;
9465;SDS011;4771;48.726;9.006;2024-03-29T10:17:44;2.45;;;1.60;;
9465;SDS011;4771;48.726;9.006;2024-03-29T10:20:16;3.10;;;2.10;;
9465;SDS011;4771;48.726;9.006;2024-03-29T10:22:43;3.40;;;2.15;;
9465;SDS011;4771;48.726;9.006;2024-03-29T10:25:12;2.33;;;1.50;;
9465;SDS011;4771;48.726;9.006;2024-03-29T10:27:39;1.85;;;1.30;;
9465;SDS011;4771;48.726;9.006;2024-03-29T10:30:07;3.00;;;1.60;;
9465;SDS011;4771;48.726;9.006;2024-03-29T10:32:36;1.83;;;1.40;;
9465;SDS011;4771;48.726;9.006;2024-03-29T10:35:05;2.15;;;1.40;;
9465;SDS011;4771;48.726;9.006;2024-03-29T10:37:33;2.78;;;1.58;;
9465;SDS011;4771;48.726;9.006;2024-03-29T10:40:05;2.67;;;2.08;;
9465;SDS011;4771;48.726;9.006;2024-03-29T10:42:33;2.95;;;1.88;;
9465;SDS011;4771;48.726;9.006;2024-03-29T10:45:02;2.38;;;1.85;;
9465;SDS011;4771;48.726;9.006;2024-03-29T10:47:31;3.13;;;1.83;;
9465;SDS011;4771;48.726;9.006;2024-03-29T10:49:59;3.33;;;1.98;;
9465;SDS011;4771;48.726;9.006;2024-03-29T10:52:26;2.72;;;1.50;;
9465;SDS011;4771;48.726;9.006;2024-03-29T10:54:55;2.88;;;1.58;;
9465;SDS011;4771;48.726;9.006;2024-03-29T10:57:22;2.30;;;1.50;;
9465;SDS011;4771;48.726;9.006;2024-03-29T10:59:53;4.45;;;1.30;;
9465;SDS011;4771;48.726;9.006;2024-03-29T11:02:30;2.83;;;1.10;;
9465;SDS011;4771;48.726;9.006;2024-03-29T11:05:02;3.10;;;1.20;;
9465;SDS011;4771;48.726;9.006;2024-03-29T11:07:36;1.80;;;1.45;;
9465;SDS011;4771;48.726;9.006;2024-03-29T11:10:08;2.78;;;1.55;;
9465;SDS011;4771;48.726;9.006;2024-03-29T11:12:41;2.35;;;1.30;;
9465;SDS011;4771;48.726;9.006;2024-03-29T11:15:19;2.78;;;1.50;;
9465;SDS011;4771;48.726;9.006;2024-03-29T11:17:54;2.47;;;1.17;;
9465;SDS011;4771;48.726;9.006;2024-03-29T11:20:22;1.70;;;0.85;;
9465;SDS011;4771;48.726;9.006;2024-03-29T11:23:00;2.20;;;1.20;;
9465;SDS011;4771;48.726;9.006;2024-03-29T11:25:41;1.42;;;1.10;;
9465;SDS011;4771;48.726;9.006;2024-03-29T11:28:10;1.95;;;1.20;;
9465;SDS011;4771;48.726;9.006;2024-03-29T11:30:41;1.10;;;1.00;;
9465;SDS011;4771;48.726;9.006;2024-03-29T11:33:28;1.60;;;1.10;;
9465;SDS011;4771;48.726;9.006;2024-03-29T11:35:56;1.23;;;1.00;;
9465;SDS011;4771;48.726;9.006;2024-03-29T11:38:30;1.15;;;1.05;;
9465;SDS011;4771;48.726;9.006;2024-03-29T11:41:06;1.52;;;1.10;;
9465;SDS011;4771;48.726;9.006;2024-03-29T11:43:34;1.25;;;1.05;;
9465;SDS011;4771;48.726;9.006;2024-03-29T11:46:02;2.45;;;1.23;;
9465;SDS011;4771;48.726;9.006;2024-03-29T11:48:31;1.65;;;1.02;;
9465;SDS011;4771;48.726;9.006;2024-03-29T11:50:58;2.42;;;1.15;;
9465;SDS011;4771;48.726;9.006;2024-03-29T11:53:25;1.88;;;1.33;;
9465;SDS011;4771;48.726;9.006;2024-03-29T11:55:54;2.40;;;1.73;;
9465;SDS011;4771;48.726;9.006;2024-03-29T11:58:23;1.60;;;1.17;;
9465;SDS011;4771;48.726;9.006;2024-03-29T12:00:50;1.50;;;1.17;;
9465;SDS011;4771;48.726;9.006;2024-03-29T12:03:18;2.35;;;1.30;;
9465;SDS011;4771;48.726;9.006;2024-03-29T12:05:47;1.40;;;1.20;;
9465;SDS011;4771;48.726;9.006;2024-03-29T12:08:15;2.05;;;1.35;;
9465;SDS011;4771;48.726;9.006;2024-03-29T12:10:43;2.88;;;1.33;;
9465;SDS011;4771;48.726;9.006;2024-03-29T12:13:10;2.25;;;1.10;;
9465;SDS011;4771;48.726;9.006;2024-03-29T12:15:38;1.60;;;1.20;;
9465;SDS011;4771;48.726;9.006;2024-03-29T12:18:06;1.92;;;1.30;;
9465;SDS011;4771;48.726;9.006;2024-03-29T12:20:33;1.33;;;0.90;;
9465;SDS011;4771;48.726;9.006;2024-03-29T12:23:02;1.70;;;1.13;;
9465;SDS011;4771;48.726;9.006;2024-03-29T12:25:31;1.20;;;1.10;;
9465;SDS011;4771;48.726;9.006;2024-03-29T12:28:00;1.83;;;1.13;;
9465;SDS011;4771;48.726;9.006;2024-03-29T12:30:27;1.30;;;1.17;;
9465;SDS011;4771;48.726;9.006;2024-03-29T12:33:02;4.13;;;1.33;;
9465;SDS011;4771;48.726;9.006;2024-03-29T12:35:29;1.30;;;1.20;;
9465;SDS011;4771;48.726;9.006;2024-03-29T12:37:57;2.55;;;1.27;;
9465;SDS011;4771;48.726;9.006;2024-03-29T12:40:25;4.65;;;1.30;;
9465;SDS011;4771;48.726;9.006;2024-03-29T12:42:54;1.88;;;1.10;;
9465;SDS011;4771;48.726;9.006;2024-03-29T12:45:22;3.03;;;1.25;;
9465;SDS011;4771;48.726;9.006;2024-03-29T12:47:50;3.10;;;1.00;;
9465;SDS011;4771;48.726;9.006;2024-03-29T12:50:24;1.23;;;1.00;;
9465;SDS011;4771;48.726;9.006;2024-03-29T12:52:53;1.85;;;1.15;;
9465;SDS011;4771;48.726;9.006;2024-03-29T12:55:21;1.13;;;0.82;;
9465;SDS011;4771;48.726;9.006;2024-03-29T12:57:49;1.48;;;0.90;;
9465;SDS011;4771;48.726;9.006;2024-03-29T13:00:18;1.55;;;0.98;;
9465;SDS011;4771;48.726;9.006;2024-03-29T13:02:45;1.30;;;1.00;;
9465;SDS011;4771;48.726;9.006;2024-03-29T13:05:12;0.98;;;0.88;;
9465;SDS011;4771;48.726;9.006;2024-03-29T13:07:40;0.80;;;0.80;;
9465;SDS011;4771;48.726;9.006;2024-03-29T13:10:08;0.80;;;0.80;;
9465;SDS011;4771;48.726;9.006;2024-03-29T13:12:38;1.38;;;1.00;;
9465;SDS011;4771;48.726;9.006;2024-03-29T13:15:14;1.50;;;0.70;;
9465;SDS011;4771;48.726;9.006;2024-03-29T13:17:42;1.27;;;0.95;;
9465;SDS011;4771;48.726;9.006;2024-03-29T13:20:10;1.83;;;1.08;;
9465;SDS011;4771;48.726;9.006;2024-03-29T13:22:37;0.93;;;0.77;;
9465;SDS011;4771;48.726;9.006;2024-03-29T13:25:08;0.85;;;0.73;;
9465;SDS011;4771;48.726;9.006;2024-03-29T13:27:36;0.80;;;0.80;;
9465;SDS011;4771;48.726;9.006;2024-03-29T13:30:03;1.13;;;0.65;;
9465;SDS011;4771;48.726;9.006;2024-03-29T13:32:31;1.00;;;0.90;;
9465;SDS011;4771;48.726;9.006;2024-03-29T13:34:58;2.55;;;0.77;;
9465;SDS011;4771;48.726;9.006;2024-03-29T13:37:25;1.13;;;0.80;;
9465;SDS011;4771;48.726;9.006;2024-03-29T13:39:52;2.10;;;0.80;;
9465;SDS011;4771;48.726;9.006;2024-03-29T13:42:21;1.88;;;1.15;;
9465;SDS011;4771;48.726;9.006;2024-03-29T13:44:49;1.05;;;0.80;;
9465;SDS011;4771;48.726;9.006;2024-03-29T13:47:16;4.00;;;1.08;;
9465;SDS011;4771;48.726;9.006;2024-03-29T13:49:43;2.08;;;0.93;;
9465;SDS011;4771;48.726;9.006;2024-03-29T13:52:12;3.95;;;0.88;;
9465;SDS011;4771;48.726;9.006;2024-03-29T13:54:42;1.20;;;0.93;;
9465;SDS011;4771;48.726;9.006;2024-03-29T13:57:11;1.50;;;0.80;;
9465;SDS011;4771;48.726;9.006;2024-03-29T13:59:39;1.27;;;0.90;;
9465;SDS011;4771;48.726;9.006;2024-03-29T14:02:08;1.90;;;0.80;;
9465;SDS011;4771;48.726;9.006;2024-03-29T14:04:35;1.75;;;0.75;;
9465;SDS011;4771;48.726;9.006;2024-03-29T14:07:02;1.50;;;0.80;;
9465;SDS011;4771;48.726;9.006;2024-03-29T14:09:32;1.52;;;0.90;;
9465;SDS011;4771;48.726;9.006;2024-03-29T14:12:00;1.75;;;0.90;;
9465;SDS011;4771;48.726;9.006;2024-03-29T14:14:27;2.60;;;1.10;;
9465;SDS011;4771;48.726;9.006;2024-03-29T14:16:55;1.80;;;0.98;;
9465;SDS011;4771;48.726;9.006;2024-03-29T14:19:22;1.25;;;0.75;;
9465;SDS011;4771;48.726;9.006;2024-03-29T14:21:51;1.75;;;0.90;;
9465;SDS011;4771;48.726;9.006;2024-03-29T14:24:18;0.95;;;0.85;;
9465;SDS011;4771;48.726;9.006;2024-03-29T14:26:45;1.63;;;1.10;;
9465;SDS011;4771;48.726;9.006;2024-03-29T14:29:12;1.25;;;0.90;;
9465;SDS011;4771;48.726;9.006;2024-03-29T14:31:40;2.03;;;0.90;;
9465;SDS011;4771;48.726;9.006;2024-03-29T14:34:10;0.82;;;0.70;;
9465;SDS011;4771;48.726;9.006;2024-03-29T14:36:37;1.92;;;0.77;;
9465;SDS011;4771;48.726;9.006;2024-03-29T14:39:04;1.42;;;1.10;;
9465;SDS011;4771;48.726;9.006;2024-03-29T14:41:31;1.52;;;1.00;;
9465;SDS011;4771;48.726;9.006;2024-03-29T14:44:00;1.90;;;0.85;;
9465;SDS011;4771;48.726;9.006;2024-03-29T14:46:27;2.70;;;1.33;;
9465;SDS011;4771;48.726;9.006;2024-03-29T14:48:54;2.10;;;1.00;;
9465;SDS011;4771;48.726;9.006;2024-03-29T14:51:22;1.25;;;1.00;;
9465;SDS011;4771;48.726;9.006;2024-03-29T14:53:48;1.83;;;0.98;;
9465;SDS011;4771;48.726;9.006;2024-03-29T14:56:15;2.10;;;0.90;;
9465;SDS011;4771;48.726;9.006;2024-03-29T14:58:42;1.35;;;0.80;;
9465;SDS011;4771;48.726;9.006;2024-03-29T15:01:10;1.20;;;0.70;;
9465;SDS011;4771;48.726;9.006;2024-03-29T15:03:37;0.80;;;0.77;;
9465;SDS011;4771;48.726;9.006;2024-03-29T15:06:04;1.65;;;1.00;;
9465;SDS011;4771;48.726;9.006;2024-03-29T15:08:32;1.40;;;1.00;;
9465;SDS011;4771;48.726;9.006;2024-03-29T15:10:59;2.50;;;1.20;;
9465;SDS011;4771;48.726;9.006;2024-03-29T15:13:27;0.82;;;0.70;;
9465;SDS011;4771;48.726;9.006;2024-03-29T15:15:55;1.60;;;0.95;;
9465;SDS011;4771;48.726;9.006;2024-03-29T15:18:22;1.90;;;1.10;;
9465;SDS011;4771;48.726;9.006;2024-03-29T15:20:53;0.80;;;0.80;;
9465;SDS011;4771;48.726;9.006;2024-03-29T15:23:21;0.98;;;0.88;;